Las Placitas, New Mexico
Current Conditions -  °F | °C
As of 6:35 PM on Friday 24 Oct 2014 (Local Time) from KLAM Reporting Station
Clear Clear  
Wind Chill: 68°   Ceiling: Unl
Heat Index: 68°   Visibility: 10mi
Dew Point: 26°   Wind: 0mph
Humidity: 21%   Direction: NA
Pressure: 30.36"   Gusts: NA
Location:  36.325°N, 106.282°W
Report Text: KLAM 250035Z AUTO 00000KT 10SM CLR 20/M03 A3036 RMK AO2 T01981033
Loading
Personal Weather Stations






























Interactive Weather Map
Tropical Storm Tracking
New forecast layout! Learn more

10-Day Weather Forecast

Advertisements
Track Severe Weather on mobile